Time;durP1;ratioP1;P1;durP2;ratioP2;P2;SDS_P1;SDS_P2;PMS_P1;PMS_P2;Temp;Humidity;BMP_temperature;BMP_pressure;BME280_temperature;BME280_humidity;BME280_pressure;Samples;Min_cycle;Max_cycle;Signal;HPM_P1;HPM_P2
2023/08/16 00:01:27;;;;;;;4.25;2.97;;;17.40;99.90;;;;;;5105506;28;20204;-82
2023/08/16 00:03:54;;;;;;;3.72;2.88;;;17.40;99.90;;;;;;5110505;28;20658;-82
2023/08/16 00:06:21;;;;;;;5.25;3.10;;;17.30;99.90;;;;;;5111091;28;20234;-82
2023/08/16 00:08:48;;;;;;;4.43;3.28;;;17.40;99.90;;;;;;5113509;28;20203;-81
2023/08/16 00:11:14;;;;;;;4.13;3.28;;;17.40;99.90;;;;;;5112628;28;20207;-80
2023/08/16 00:13:41;;;;;;;4.35;3.22;;;17.40;99.90;;;;;;5114597;28;20207;-81
2023/08/16 00:16:08;;;;;;;4.27;3.10;;;17.30;99.90;;;;;;5094583;28;20270;-83
2023/08/16 00:18:35;;;;;;;4.50;3.60;;;17.30;99.90;;;;;;5114607;28;20600;-81
2023/08/16 00:21:02;;;;;;;4.93;3.20;;;17.40;99.90;;;;;;5113126;28;20822;-81
2023/08/16 00:23:28;;;;;;;4.07;3.35;;;17.30;99.90;;;;;;5085626;28;20569;-80
2023/08/16 00:25:56;;;;;;;4.60;3.47;;;17.40;99.90;;;;;;5102979;28;20292;-81
2023/08/16 00:28:23;;;;;;;4.00;3.10;;;17.40;99.90;;;;;;5106446;28;20216;-79
2023/08/16 00:30:53;;;;;;;4.15;3.40;;;17.40;99.90;;;;;;5108970;28;20271;-79
2023/08/16 00:33:21;;;;;;;4.05;2.97;;;17.40;99.90;;;;;;5111331;28;20726;-80
2023/08/16 00:35:50;;;;;;;3.90;3.15;;;17.40;99.90;;;;;;5116062;28;20218;-81
2023/08/16 00:38:17;;;;;;;5.55;3.25;;;17.40;99.90;;;;;;5119737;28;20210;-80
2023/08/16 00:40:51;;;;;;;5.03;3.75;;;17.40;99.90;;;;;;5118152;28;20618;-79
2023/08/16 00:43:18;;;;;;;4.97;3.15;;;17.40;99.90;;;;;;5120808;28;20286;-80
2023/08/16 00:45:47;;;;;;;5.15;3.30;;;17.40;99.90;;;;;;5105791;28;20334;-80
2023/08/16 00:48:14;;;;;;;6.38;3.10;;;17.40;99.90;;;;;;5083758;28;20204;-80
2023/08/16 00:50:42;;;;;;;4.43;3.53;;;17.30;99.90;;;;;;5114513;28;20217;-80
2023/08/16 00:53:09;;;;;;;4.85;3.38;;;17.30;99.90;;;;;;5116599;28;20225;-80
2023/08/16 00:55:37;;;;;;;6.10;3.75;;;17.30;99.90;;;;;;5094165;28;20600;-80
2023/08/16 00:58:04;;;;;;;5.88;3.30;;;17.30;99.90;;;;;;5107748;28;20219;-81
2023/08/16 01:00:31;;;;;;;5.25;3.42;;;17.30;99.90;;;;;;5083199;28;20248;-82
2023/08/16 01:02:58;;;;;;;7.50;3.80;;;17.30;99.90;;;;;;5105855;28;20204;-80
2023/08/16 01:05:25;;;;;;;4.72;3.85;;;17.30;99.90;;;;;;5114070;28;20219;-80
2023/08/16 01:07:53;;;;;;;6.05;3.60;;;17.30;99.90;;;;;;5099781;28;20214;-81
2023/08/16 01:10:25;;;;;;;5.82;3.70;;;17.20;99.90;;;;;;5112853;28;20198;-80
2023/08/16 01:13:02;;;;;;;5.22;3.28;;;17.30;99.90;;;;;;5113729;28;20254;-82
2023/08/16 01:15:33;;;;;;;5.60;4.25;;;17.20;99.90;;;;;;5104553;28;20206;-80
2023/08/16 01:18:02;;;;;;;7.85;3.95;;;17.20;99.90;;;;;;5103609;28;20203;-81
2023/08/16 01:20:31;;;;;;;5.03;3.60;;;17.20;99.90;;;;;;5101396;28;20699;-80
2023/08/16 01:23:06;;;;;;;7.05;3.63;;;17.20;99.90;;;;;;5106289;28;20232;-81
2023/08/16 01:25:50;;;;;;;7.75;4.65;;;17.20;99.90;;;;;;5097221;28;20292;-82
2023/08/16 01:28:18;;;;;;;6.80;3.65;;;17.20;99.90;;;;;;5103230;28;20265;-80
2023/08/16 01:30:46;;;;;;;7.93;3.80;;;17.20;99.90;;;;;;5112497;28;20203;-82
2023/08/16 01:33:13;;;;;;;5.28;3.88;;;17.10;99.90;;;;;;5113529;28;20195;-81
2023/08/16 01:35:41;;;;;;;5.63;3.58;;;17.10;99.90;;;;;;5113462;28;20206;-81
2023/08/16 01:38:12;;;;;;;6.82;4.07;;;17.10;99.90;;;;;;5095287;28;20207;-80
2023/08/16 01:40:51;;;;;;;4.78;3.70;;;17.10;99.90;;;;;;5110935;28;20191;-80
2023/08/16 01:43:19;;;;;;;3.83;3.30;;;17.10;99.90;;;;;;5112706;28;20282;-80
2023/08/16 01:45:48;;;;;;;6.22;3.90;;;17.10;99.90;;;;;;5109887;28;20239;-80
2023/08/16 01:48:16;;;;;;;5.82;4.28;;;17.10;99.90;;;;;;5102117;28;20663;-81
2023/08/16 01:50:43;;;;;;;6.60;3.88;;;17.10;99.90;;;;;;5111265;28;20215;-80
2023/08/16 01:53:10;;;;;;;4.60;3.78;;;17.20;99.90;;;;;;5108290;28;20274;-80
2023/08/16 01:55:37;;;;;;;5.45;3.95;;;17.20;99.90;;;;;;5102673;28;20575;-80
2023/08/16 01:58:04;;;;;;;5.05;3.65;;;17.20;99.90;;;;;;5111703;28;20218;-81
2023/08/16 02:00:31;;;;;;;7.40;4.18;;;17.20;99.90;;;;;;5112398;28;20206;-81
2023/08/16 02:02:58;;;;;;;6.05;4.03;;;17.30;99.90;;;;;;5111579;28;20527;-81
2023/08/16 02:05:25;;;;;;;6.05;4.38;;;17.20;99.90;;;;;;5099911;28;20386;-81
2023/08/16 02:07:52;;;;;;;5.95;3.95;;;17.30;99.90;;;;;;5112330;28;20203;-81
2023/08/16 02:10:19;;;;;;;7.63;4.03;;;17.30;99.90;;;;;;5105740;28;20208;-80
2023/08/16 02:12:46;;;;;;;5.28;3.88;;;17.30;99.90;;;;;;5093836;28;20212;-79
2023/08/16 02:15:14;;;;;;;5.03;3.70;;;17.30;99.90;;;;;;5099267;28;20215;-80
2023/08/16 02:17:41;;;;;;;5.32;4.00;;;17.20;99.90;;;;;;5093877;28;20201;-81
2023/08/16 02:20:10;;;;;;;6.78;4.40;;;17.20;99.90;;;;;;5111713;28;20233;-81
2023/08/16 02:22:37;;;;;;;5.22;4.25;;;17.20;99.90;;;;;;5111806;28;20714;-81
2023/08/16 02:25:10;;;;;;;5.50;4.10;;;17.20;99.90;;;;;;5112255;28;20820;-80
2023/08/16 02:27:37;;;;;;;5.63;4.45;;;17.30;99.90;;;;;;5099836;28;20207;-81
2023/08/16 02:30:05;;;;;;;5.45;3.88;;;17.20;99.90;;;;;;5104023;28;20200;-78
2023/08/16 02:32:33;;;;;;;6.38;4.35;;;17.20;99.90;;;;;;5104208;27;20223;-81
2023/08/16 02:35:00;;;;;;;10.32;5.00;;;17.10;99.90;;;;;;5113055;27;20231;-79
2023/08/16 02:37:26;;;;;;;6.15;4.60;;;17.10;99.90;;;;;;5091416;28;20207;-80
2023/08/16 02:39:53;;;;;;;6.60;5.03;;;17.10;99.90;;;;;;5111493;28;20306;-80
2023/08/16 02:42:20;;;;;;;8.80;4.53;;;17.00;99.90;;;;;;5100960;28;20203;-81
2023/08/16 02:44:47;;;;;;;8.50;4.88;;;17.00;99.90;;;;;;5111748;28;20211;-79
2023/08/16 02:47:14;;;;;;;10.23;5.20;;;17.00;99.90;;;;;;5108711;28;20234;-81
2023/08/16 02:49:41;;;;;;;9.30;5.53;;;16.90;99.90;;;;;;5099765;28;20202;-81
2023/08/16 02:52:08;;;;;;;10.38;5.90;;;16.90;99.90;;;;;;5088908;28;20228;-80
2023/08/16 02:54:35;;;;;;;7.90;5.70;;;17.00;99.90;;;;;;5111118;28;20206;-80
2023/08/16 02:57:02;;;;;;;9.32;5.30;;;17.00;99.90;;;;;;5093124;28;20213;-80
2023/08/16 02:59:42;;;;;;;9.15;5.80;;;17.00;99.90;;;;;;5110989;28;20235;-81
2023/08/16 03:02:09;;;;;;;6.25;5.15;;;17.00;99.90;;;;;;5104582;28;20451;-82
2023/08/16 03:04:39;;;;;;;8.35;5.30;;;17.00;99.90;;;;;;5106824;28;20199;-81
2023/08/16 03:07:07;;;;;;;6.60;5.25;;;17.10;99.90;;;;;;5107144;28;20250;-80
2023/08/16 03:09:35;;;;;;;9.73;5.15;;;17.10;99.90;;;;;;5104943;28;20316;-80
2023/08/16 03:12:03;;;;;;;6.18;4.43;;;17.00;99.90;;;;;;5109298;28;20268;-77
2023/08/16 03:14:30;;;;;;;9.13;4.97;;;17.00;99.90;;;;;;5111873;28;20203;-79
2023/08/16 03:16:57;;;;;;;8.40;4.47;;;17.00;99.90;;;;;;5112742;28;20215;-80
2023/08/16 03:19:25;;;;;;;10.18;4.65;;;16.90;99.90;;;;;;5104048;28;20225;-81
2023/08/16 03:21:53;;;;;;;7.32;4.72;;;16.90;99.90;;;;;;5118476;28;20223;-80
2023/08/16 03:24:20;;;;;;;6.28;4.13;;;17.00;99.90;;;;;;5123690;28;20221;-80
2023/08/16 03:26:47;;;;;;;8.23;4.90;;;17.00;99.90;;;;;;5109461;28;20219;-80
2023/08/16 03:29:16;;;;;;;5.35;4.47;;;17.00;99.90;;;;;;5122808;28;20255;-81
2023/08/16 03:31:43;;;;;;;5.80;4.72;;;17.00;99.90;;;;;;5115447;28;20219;-80
2023/08/16 03:34:11;;;;;;;6.53;4.65;;;17.00;99.90;;;;;;5123219;28;20314;-82
2023/08/16 03:36:37;;;;;;;9.70;5.70;;;17.00;99.90;;;;;;5107452;28;20195;-80
2023/08/16 03:39:06;;;;;;;10.23;5.28;;;17.00;99.90;;;;;;5111100;28;20260;-80
2023/08/16 03:41:34;;;;;;;5.90;5.28;;;17.00;99.90;;;;;;5104622;28;20199;-79
2023/08/16 03:44:01;;;;;;;8.82;5.60;;;16.90;99.90;;;;;;5097626;28;20322;-81
2023/08/16 03:46:27;;;;;;;9.65;5.13;;;16.90;99.90;;;;;;5107688;28;20722;-81
2023/08/16 03:48:55;;;;;;;6.00;4.90;;;16.90;99.90;;;;;;5112298;28;20299;-79
2023/08/16 03:51:22;;;;;;;6.28;4.15;;;16.90;99.90;;;;;;5100639;28;20203;-81
2023/08/16 03:53:49;;;;;;;6.53;4.97;;;16.90;99.90;;;;;;5103008;28;20195;-80
2023/08/16 03:56:15;;;;;;;9.23;5.53;;;16.90;99.90;;;;;;5115181;28;20248;-80
2023/08/16 03:58:43;;;;;;;7.40;4.75;;;16.80;99.90;;;;;;5111082;28;20215;-80
2023/08/16 04:01:11;;;;;;;8.23;5.13;;;16.80;99.90;;;;;;5095092;28;20638;-81
2023/08/16 04:03:38;;;;;;;5.90;4.57;;;16.80;99.90;;;;;;5103508;28;20626;-82
2023/08/16 04:06:11;;;;;;;8.77;4.85;;;16.80;99.90;;;;;;5113761;28;20803;-83
2023/08/16 04:08:39;;;;;;;6.83;4.50;;;16.70;99.90;;;;;;5120696;27;20265;-81
2023/08/16 04:11:06;;;;;;;6.83;5.17;;;16.70;99.90;;;;;;5113721;28;20212;-81
2023/08/16 04:13:34;;;;;;;6.37;4.93;;;16.60;99.90;;;;;;5105402;28;20543;-79
2023/08/16 04:16:01;;;;;;;8.80;4.67;;;16.60;99.90;;;;;;5108767;28;20318;-80
2023/08/16 04:18:28;;;;;;;6.77;4.70;;;16.60;99.90;;;;;;5102980;28;20219;-81
2023/08/16 04:20:55;;;;;;;8.23;5.03;;;16.50;99.90;;;;;;5109749;28;20199;-81
2023/08/16 04:23:23;;;;;;;6.53;4.70;;;16.50;99.90;;;;;;5114067;28;20688;-82
2023/08/16 04:25:50;;;;;;;6.40;4.77;;;16.50;99.90;;;;;;5095703;28;20646;-82
2023/08/16 04:28:17;;;;;;;6.07;4.73;;;16.50;99.90;;;;;;5113570;28;20207;-81
2023/08/16 04:30:47;;;;;;;7.03;4.83;;;16.40;99.90;;;;;;5084519;28;20635;-80
2023/08/16 04:33:13;;;;;;;8.73;4.70;;;16.40;99.90;;;;;;5113923;28;20268;-80
2023/08/16 04:35:40;;;;;;;7.63;5.00;;;16.40;99.90;;;;;;5112991;28;20203;-81
2023/08/16 04:38:07;;;;;;;6.17;5.00;;;16.40;99.90;;;;;;5105935;28;20219;-83
2023/08/16 04:40:34;;;;;;;7.33;5.10;;;16.30;99.90;;;;;;5111969;28;20620;-81
2023/08/16 04:43:01;;;;;;;6.80;4.67;;;16.30;99.90;;;;;;5114315;28;20211;-79
2023/08/16 04:45:28;;;;;;;6.57;4.85;;;16.30;99.90;;;;;;5104337;28;20231;-82
2023/08/16 04:47:55;;;;;;;9.80;5.33;;;16.30;99.90;;;;;;5105751;28;20235;-82
2023/08/16 04:50:22;;;;;;;8.37;5.97;;;16.30;99.90;;;;;;5112593;28;20211;-81
2023/08/16 04:52:48;;;;;;;7.03;5.50;;;16.40;99.90;;;;;;5107365;28;20716;-81
2023/08/16 04:55:15;;;;;;;7.50;5.17;;;16.40;99.90;;;;;;5095146;28;20199;-82
2023/08/16 04:57:43;;;;;;;6.37;5.23;;;16.50;99.90;;;;;;5105518;28;20207;-82
2023/08/16 05:00:11;;;;;;;6.70;5.40;;;16.50;99.90;;;;;;5110958;28;20829;-83
2023/08/16 05:02:38;;;;;;;8.80;5.47;;;16.50;99.90;;;;;;5108409;28;20278;-81
2023/08/16 05:05:05;;;;;;;7.90;5.22;;;16.50;99.90;;;;;;5112351;28;20225;-81
2023/08/16 05:07:32;;;;;;;7.00;5.27;;;16.60;99.90;;;;;;5111085;28;20225;-81
2023/08/16 05:09:59;;;;;;;8.75;5.50;;;16.60;99.90;;;;;;5112907;28;20203;-81
2023/08/16 05:12:26;;;;;;;8.63;5.65;;;16.60;99.90;;;;;;5112181;28;20207;-80
2023/08/16 05:14:53;;;;;;;10.45;6.28;;;16.60;99.90;;;;;;5108423;28;20663;-82
2023/08/16 05:17:20;;;;;;;7.85;5.47;;;16.70;99.90;;;;;;5112988;28;20555;-82
2023/08/16 05:19:48;;;;;;;6.68;4.78;;;16.70;99.90;;;;;;5094579;28;20195;-81
2023/08/16 05:22:14;;;;;;;8.82;5.50;;;16.70;99.90;;;;;;5109436;28;20239;-81
2023/08/16 05:24:41;;;;;;;6.75;4.75;;;16.80;99.90;;;;;;5113024;28;20199;-82
2023/08/16 05:27:12;;;;;;;10.20;5.95;;;16.80;99.90;;;;;;5112623;28;20231;-82
2023/08/16 05:29:40;;;;;;;9.90;6.45;;;16.80;99.90;;;;;;5094972;28;20207;-82
2023/08/16 05:32:07;;;;;;;8.23;5.70;;;16.90;99.90;;;;;;5112253;28;20575;-80
2023/08/16 05:34:33;;;;;;;11.13;5.40;;;16.80;99.90;;;;;;5111578;28;20215;-82
2023/08/16 05:37:01;;;;;;;10.13;6.53;;;17.00;99.90;;;;;;5113182;28;20203;-81
2023/08/16 05:39:27;;;;;;;10.80;6.38;;;17.10;99.90;;;;;;5113050;28;20210;-81
2023/08/16 05:41:54;;;;;;;8.27;5.85;;;17.20;99.90;;;;;;5112756;28;20260;-80
2023/08/16 05:44:21;;;;;;;9.90;6.43;;;17.30;99.90;;;;;;5112231;28;20217;-82
2023/08/16 05:46:48;;;;;;;10.65;6.80;;;17.30;99.90;;;;;;5111274;28;20316;-81
2023/08/16 05:49:15;;;;;;;8.93;5.97;;;17.40;99.90;;;;;;5112194;28;20565;-82
2023/08/16 05:51:42;;;;;;;8.70;6.63;;;17.50;99.90;;;;;;5112302;28;20207;-81
2023/08/16 05:54:10;;;;;;;11.93;7.55;;;17.60;99.90;;;;;;5112631;28;20264;-78
2023/08/16 05:56:37;;;;;;;14.40;8.13;;;17.60;99.90;;;;;;5112009;28;20225;-81
2023/08/16 05:59:04;;;;;;;11.35;7.93;;;17.60;99.90;;;;;;5111538;28;20214;-82
2023/08/16 06:01:31;;;;;;;15.00;7.35;;;17.70;99.90;;;;;;5111869;28;20211;-83
2023/08/16 06:03:58;;;;;;;12.98;7.72;;;17.70;99.90;;;;;;5111756;28;20218;-81
2023/08/16 06:06:26;;;;;;;9.73;7.22;;;17.70;99.90;;;;;;5110626;28;20547;-82
2023/08/16 06:08:53;;;;;;;9.73;6.68;;;17.80;99.90;;;;;;5111340;28;20275;-82
2023/08/16 06:11:19;;;;;;;12.95;7.68;;;17.90;99.90;;;;;;5111735;28;20225;-81
2023/08/16 06:13:46;;;;;;;11.57;7.43;;;18.00;99.90;;;;;;5109520;28;20196;-80
2023/08/16 06:16:13;;;;;;;10.85;6.72;;;18.00;99.90;;;;;;5106757;28;20219;-80
2023/08/16 06:18:40;;;;;;;11.70;7.07;;;18.00;99.90;;;;;;5101472;28;20188;-80
2023/08/16 06:21:06;;;;;;;12.25;7.05;;;18.10;99.90;;;;;;5097720;28;20561;-82
2023/08/16 06:23:33;;;;;;;13.05;7.93;;;18.40;99.90;;;;;;5103970;28;20206;-80
2023/08/16 06:26:00;;;;;;;11.57;6.60;;;18.30;99.90;;;;;;5108168;28;20946;-80
2023/08/16 06:28:27;;;;;;;9.70;6.43;;;18.40;99.90;;;;;;5096548;28;20404;-81
2023/08/16 06:30:54;;;;;;;11.88;7.40;;;18.50;99.90;;;;;;5100453;28;20272;-79
2023/08/16 06:33:21;;;;;;;8.57;6.80;;;18.70;99.90;;;;;;5089842;28;20338;-81
2023/08/16 06:35:51;;;;;;;9.95;6.53;;;18.90;99.90;;;;;;5102577;28;20213;-81
2023/08/16 06:38:19;;;;;;;11.35;6.82;;;19.10;99.90;;;;;;5094319;28;20215;-81
2023/08/16 06:40:46;;;;;;;10.00;6.30;;;19.30;99.90;;;;;;5093689;28;20420;-81
2023/08/16 06:43:12;;;;;;;7.18;5.97;;;19.60;99.90;;;;;;5076468;28;20432;-81
2023/08/16 06:45:40;;;;;;;8.25;5.85;;;20.10;99.90;;;;;;5084974;28;20218;-80
2023/08/16 06:48:07;;;;;;;6.57;5.32;;;20.90;99.90;;;;;;5079515;28;20222;-80
2023/08/16 06:50:34;;;;;;;7.22;4.93;;;22.00;99.90;;;;;;5086020;28;20260;-81
2023/08/16 06:53:04;;;;;;;7.05;4.47;;;23.00;99.90;;;;;;5063992;28;20229;-82
2023/08/16 06:55:31;;;;;;;9.05;6.07;;;23.80;99.90;;;;;;5077703;28;20257;-82
2023/08/16 06:57:57;;;;;;;7.20;5.22;;;24.40;99.90;;;;;;5079597;28;20961;-82
2023/08/16 07:00:24;;;;;;;6.55;4.93;;;24.60;99.90;;;;;;5077233;28;20551;-80
2023/08/16 07:02:52;;;;;;;9.25;4.80;;;24.50;99.90;;;;;;5084048;28;20306;-82
2023/08/16 07:05:21;;;;;;;6.32;4.47;;;24.20;99.90;;;;;;5092352;28;20677;-79
2023/08/16 07:07:48;;;;;;;7.55;4.03;;;24.00;99.90;;;;;;5096914;28;20223;-81
2023/08/16 07:10:16;;;;;;;8.65;4.95;;;23.90;99.90;;;;;;5094576;28;20206;-80
2023/08/16 07:12:44;;;;;;;5.70;4.70;;;23.80;99.90;;;;;;5092049;28;20228;-80
2023/08/16 07:15:11;;;;;;;7.03;4.45;;;23.60;99.90;;;;;;5089111;28;20489;-81
2023/08/16 07:17:38;;;;;;;7.82;5.13;;;23.50;99.90;;;;;;5087307;28;20699;-82
2023/08/16 07:20:08;;;;;;;7.07;5.20;;;23.50;99.90;;;;;;5087851;28;20195;-81
2023/08/16 07:22:39;;;;;;;9.10;5.63;;;23.50;99.90;;;;;;5091764;28;20584;-81
2023/08/16 07:25:07;;;;;;;5.90;4.55;;;23.60;99.90;;;;;;5084347;28;20210;-81
2023/08/16 07:27:35;;;;;;;6.80;4.93;;;23.70;99.90;;;;;;5076720;28;20590;-82
2023/08/16 07:30:04;;;;;;;5.85;4.25;;;24.00;99.90;;;;;;5096138;28;20252;-83
2023/08/16 07:32:34;;;;;;;8.20;4.60;;;24.60;99.90;;;;;;5096431;28;20215;-81
2023/08/16 07:35:03;;;;;;;8.43;4.40;;;25.30;99.90;;;;;;5096178;28;20202;-80
2023/08/16 07:37:31;;;;;;;8.95;5.00;;;25.60;99.90;;;;;;5109524;28;20291;-81
2023/08/16 07:39:59;;;;;;;6.90;4.45;;;25.90;99.90;;;;;;5108054;28;20202;-82
2023/08/16 07:42:26;;;;;;;6.40;4.93;;;25.90;99.90;;;;;;5105686;28;20733;-83
2023/08/16 07:44:53;;;;;;;7.28;5.43;;;25.70;99.90;;;;;;5105347;28;20294;-81
2023/08/16 07:47:21;;;;;;;8.57;5.00;;;25.70;99.90;;;;;;5109255;28;20249;-83
2023/08/16 07:49:47;;;;;;;5.38;4.13;;;25.80;99.90;;;;;;5106933;28;20707;-84
2023/08/16 07:52:14;;;;;;;9.50;4.43;;;26.00;99.90;;;;;;5105446;28;20657;-84
2023/08/16 07:54:42;;;;;;;7.20;4.30;;;26.00;99.90;;;;;;5100914;28;20206;-80
2023/08/16 07:57:09;;;;;;;4.80;3.72;;;26.10;99.90;;;;;;5108074;28;20221;-82
2023/08/16 07:59:36;;;;;;;4.55;3.90;;;26.30;99.90;;;;;;5106469;28;20275;-81
2023/08/16 08:02:05;;;;;;;5.97;3.60;;;26.60;99.90;;;;;;5092682;28;20397;-82
2023/08/16 08:04:33;;;;;;;4.75;3.83;;;26.80;99.90;;;;;;5103283;28;20203;-83
2023/08/16 08:07:03;;;;;;;6.13;4.00;;;27.10;99.90;;;;;;5113181;28;20223;-83
2023/08/16 08:09:31;;;;;;;3.85;3.40;;;27.30;99.90;;;;;;5096554;28;20611;-85
2023/08/16 08:11:59;;;;;;;4.22;3.10;;;27.40;99.90;;;;;;5104349;28;20192;-82
2023/08/16 08:14:26;;;;;;;4.07;2.58;;;27.70;99.90;;;;;;5129701;28;20887;-82
2023/08/16 08:16:55;;;;;;;4.47;3.70;;;27.90;99.90;;;;;;5131613;28;20201;-81
2023/08/16 08:19:22;;;;;;;5.25;2.67;;;28.10;99.90;;;;;;5129760;28;20510;-82
2023/08/16 08:21:49;;;;;;;3.55;3.05;;;28.10;99.90;;;;;;5117208;28;20235;-84
2023/08/16 08:24:16;;;;;;;5.57;3.03;;;28.10;99.90;;;;;;5109375;28;20666;-82
2023/08/16 08:26:43;;;;;;;4.03;2.97;;;28.00;99.90;;;;;;5109107;28;20195;-82
2023/08/16 08:29:10;;;;;;;4.95;2.88;;;28.00;99.90;;;;;;5093863;28;20207;-83
2023/08/16 08:31:36;;;;;;;3.50;2.17;;;28.10;99.90;;;;;;5112481;28;20207;-84
2023/08/16 08:34:03;;;;;;;2.45;1.80;;;28.30;99.90;;;;;;5095325;28;20199;-81
2023/08/16 08:36:31;;;;;;;3.17;2.03;;;28.40;99.90;;;;;;5111934;28;20230;-83
2023/08/16 08:38:59;;;;;;;4.07;2.00;;;28.50;99.90;;;;;;5102483;28;20283;-82
2023/08/16 08:41:26;;;;;;;6.57;1.90;;;28.10;99.90;;;;;;5112525;28;20203;-82
2023/08/16 08:44:11;;;;;;;5.30;1.77;;;27.90;99.90;;;;;;5110128;28;20203;-78
2023/08/16 08:46:39;;;;;;;2.45;1.40;;;28.10;99.90;;;;;;5091430;28;20632;-81
2023/08/16 08:49:06;;;;;;;2.70;1.48;;;28.30;99.90;;;;;;5111711;28;20231;-82
2023/08/16 08:51:35;;;;;;;5.75;1.88;;;28.50;99.90;;;;;;5111885;28;20203;-80
2023/08/16 08:54:02;;;;;;;2.67;1.50;;;28.60;99.90;;;;;;5111677;28;20425;-80
2023/08/16 08:56:30;;;;;;;4.05;1.50;;;28.70;99.90;;;;;;5111473;28;20211;-81
2023/08/16 08:59:01;;;;;;;2.35;1.20;;;28.80;99.90;;;;;;5111682;28;20211;-82
2023/08/16 09:01:40;;;;;;;3.03;1.30;;;28.70;99.90;;;;;;5111623;28;20693;-82
2023/08/16 09:04:09;;;;;;;2.33;1.17;;;28.40;99.90;;;;;;5111391;28;20519;-83
2023/08/16 09:06:36;;;;;;;1.42;1.10;;;28.20;99.90;;;;;;5094670;28;20205;-79
2023/08/16 09:09:04;;;;;;;3.65;1.45;;;28.30;99.90;;;;;;5113848;28;20227;-82
2023/08/16 09:11:31;;;;;;;1.70;1.50;;;28.30;99.90;;;;;;5114569;28;20277;-80
2023/08/16 09:14:02;;;;;;;2.58;1.33;;;28.30;99.90;;;;;;5114542;28;20666;-82
2023/08/16 09:16:29;;;;;;;2.38;1.50;;;28.30;99.90;;;;;;5113177;28;20226;-83
2023/08/16 09:18:56;;;;;;;1.92;1.17;;;28.30;99.90;;;;;;5113372;28;20565;-82
2023/08/16 09:21:28;;;;;;;2.20;1.45;;;28.40;99.90;;;;;;5112484;28;20227;-79
2023/08/16 09:23:57;;;;;;;1.88;1.25;;;28.30;99.90;;;;;;5111596;28;20207;-80
2023/08/16 09:26:26;;;;;;;1.75;1.27;;;28.10;99.90;;;;;;5112652;28;20309;-80
2023/08/16 09:28:58;;;;;;;3.03;1.10;;;28.00;99.90;;;;;;5113119;28;20227;-81
2023/08/16 09:31:32;;;;;;;1.40;1.30;;;27.80;99.90;;;;;;5112778;28;20277;-80
2023/08/16 09:33:59;;;;;;;2.03;1.15;;;27.50;99.90;;;;;;5112781;28;20306;-81
2023/08/16 09:36:35;;;;;;;2.80;1.25;;;27.50;99.90;;;;;;5112453;28;20199;-80
2023/08/16 09:39:09;;;;;;;4.18;1.58;;;27.60;99.90;;;;;;5113090;28;20706;-81
2023/08/16 09:41:46;;;;;;;2.92;1.92;;;27.70;99.90;;;;;;5113009;28;20314;-80
2023/08/16 09:44:13;;;;;;;3.28;1.63;;;27.70;99.90;;;;;;5112722;28;20207;-80
2023/08/16 09:46:40;;;;;;;2.30;1.40;;;27.60;99.90;;;;;;5112798;28;20211;-81
2023/08/16 09:49:13;;;;;;;5.03;1.58;;;27.40;99.90;;;;;;5111888;28;20227;-79
2023/08/16 09:51:45;;;;;;;2.90;1.83;;;27.10;99.90;;;;;;5112357;28;20238;-81
2023/08/16 09:54:17;;;;;;;2.60;1.55;;;27.10;99.90;;;;;;5081301;28;20583;-79
2023/08/16 09:56:45;;;;;;;5.13;2.05;;;27.10;99.90;;;;;;5112240;28;20207;-81
2023/08/16 09:59:15;;;;;;;3.10;1.52;;;27.00;99.90;;;;;;5112398;28;20211;-79
2023/08/16 10:01:46;;;;;;;2.03;1.40;;;27.00;99.90;;;;;;5112129;28;20223;-81
2023/08/16 10:04:17;;;;;;;2.90;1.42;;;26.70;99.90;;;;;;5099786;28;20215;-80
2023/08/16 10:06:47;;;;;;;2.88;1.75;;;26.30;99.90;;;;;;5087977;28;20294;-79
2023/08/16 10:09:17;;;;;;;1.67;1.40;;;25.90;99.90;;;;;;5110261;28;20562;-80
2023/08/16 10:11:47;;;;;;;3.45;1.70;;;26.00;99.90;;;;;;5111387;28;20203;-79
2023/08/16 10:14:15;;;;;;;2.20;1.50;;;25.80;99.90;;;;;;5110703;28;20218;-80
2023/08/16 10:16:46;;;;;;;2.20;1.60;;;25.70;99.90;;;;;;5093147;28;20223;-80
2023/08/16 10:19:16;;;;;;;3.08;1.60;;;25.70;99.90;;;;;;5111603;28;20212;-80
2023/08/16 10:21:46;;;;;;;2.25;1.33;;;25.60;99.90;;;;;;5101629;28;20699;-78
2023/08/16 10:24:15;;;;;;;2.13;1.58;;;25.80;99.90;;;;;;5054481;28;20200;-78
2023/08/16 10:27:02;;;;;;;2.65;1.30;;;25.60;99.90;;;;;;5057857;28;20258;-79
2023/08/16 10:29:37;;;;;;;1.73;1.58;;;25.70;99.90;;;;;;5059058;28;20237;-79
2023/08/16 10:32:14;;;;;;;1.70;1.30;;;25.80;99.90;;;;;;5057936;28;20583;-80
2023/08/16 10:34:42;;;;;;;2.80;1.55;;;25.90;99.90;;;;;;5080610;28;20311;-80
2023/08/16 10:37:12;;;;;;;3.53;1.77;;;25.90;99.90;;;;;;5061287;28;20203;-78
2023/08/16 10:39:49;;;;;;;2.97;1.90;;;26.00;99.90;;;;;;5058368;28;20208;-80
2023/08/16 10:42:36;;;;;;;3.78;1.40;;;26.10;99.90;;;;;;5063229;28;20236;-79
2023/08/16 10:45:03;;;;;;;4.93;1.70;;;26.10;99.90;;;;;;5057776;28;20289;-79
2023/08/16 10:47:37;;;;;;;1.50;1.40;;;26.30;99.90;;;;;;5075962;28;20601;-79
2023/08/16 10:50:04;;;;;;;3.30;1.40;;;26.40;99.90;;;;;;5055031;28;20217;-79
2023/08/16 10:52:32;;;;;;;2.10;1.20;;;26.60;99.90;;;;;;5063176;28;20287;-78
2023/08/16 10:54:59;;;;;;;1.13;1.02;;;26.80;99.90;;;;;;5061202;28;20204;-80
2023/08/16 10:57:26;;;;;;;2.55;1.23;;;26.90;99.90;;;;;;5060195;28;20283;-78
2023/08/16 11:00:09;;;;;;;1.60;1.17;;;27.10;99.90;;;;;;5060857;28;20209;-79
2023/08/16 11:02:37;;;;;;;2.38;1.30;;;27.20;99.90;;;;;;5066872;28;20209;-78
2023/08/16 11:05:05;;;;;;;4.35;1.25;;;27.20;99.90;;;;;;5062681;28;20227;-80
2023/08/16 11:07:35;;;;;;;1.30;1.20;;;27.20;99.90;;;;;;5056511;28;20196;-79
2023/08/16 11:10:02;;;;;;;3.17;1.55;;;27.30;99.90;;;;;;5058101;28;20213;-81
2023/08/16 11:12:34;;;;;;;1.95;1.30;;;27.40;99.90;;;;;;5059753;28;20204;-79
2023/08/16 11:15:02;;;;;;;1.63;1.25;;;27.60;99.90;;;;;;5058546;28;20232;-80
2023/08/16 11:17:29;;;;;;;3.55;1.40;;;27.60;99.90;;;;;;5063642;28;20217;-80
2023/08/16 11:19:59;;;;;;;2.03;1.15;;;27.60;99.90;;;;;;5059198;28;20300;-79
2023/08/16 11:22:26;;;;;;;2.10;1.23;;;27.40;99.90;;;;;;5056804;28;20227;-81
2023/08/16 11:25:00;;;;;;;2.30;1.50;;;27.50;99.90;;;;;;5066138;28;20534;-78
2023/08/16 11:27:28;;;;;;;2.25;1.15;;;27.50;99.90;;;;;;5059470;28;20237;-79
2023/08/16 11:29:56;;;;;;;2.53;1.40;;;27.50;99.90;;;;;;5066740;28;20236;-79
2023/08/16 11:32:41;;;;;;;3.95;1.20;;;27.50;99.90;;;;;;5060304;28;20212;-78
2023/08/16 11:35:11;;;;;;;2.78;1.30;;;27.50;99.90;;;;;;5058182;28;20203;-81
2023/08/16 11:37:42;;;;;;;2.30;1.33;;;27.50;99.90;;;;;;5058183;28;20230;-80
2023/08/16 11:40:09;;;;;;;2.88;1.50;;;27.50;99.90;;;;;;5063134;28;20262;-80
2023/08/16 11:42:36;;;;;;;1.67;1.48;;;27.50;99.90;;;;;;5058098;28;20573;-79
2023/08/16 11:45:20;;;;;;;1.60;1.08;;;27.60;99.90;;;;;;5059123;28;20204;-79
2023/08/16 11:47:54;;;;;;;2.17;1.20;;;27.60;99.90;;;;;;5077718;28;20197;-78
2023/08/16 11:50:24;;;;;;;2.97;1.30;;;27.60;99.90;;;;;;5069018;28;20239;-77
2023/08/16 11:53:02;;;;;;;2.60;1.20;;;27.70;99.90;;;;;;5056301;28;20208;-78
2023/08/16 11:55:30;;;;;;;1.70;1.00;;;27.80;99.90;;;;;;5059532;28;20209;-79
2023/08/16 11:58:04;;;;;;;1.38;1.20;;;27.70;99.90;;;;;;5064428;28;20255;-77
2023/08/16 12:00:32;;;;;;;2.40;1.40;;;27.60;99.90;;;;;;5065170;28;20229;-78
2023/08/16 12:03:03;;;;;;;4.10;1.55;;;27.70;99.90;;;;;;5048443;28;20679;-77
2023/08/16 12:05:40;;;;;;;2.88;1.48;;;27.80;99.90;;;;;;5062825;28;20215;-78
2023/08/16 12:11:07;;;;;;;1.70;1.17;;;27.90;99.90;;;;;;5049337;28;20572;-78
2023/08/16 12:13:35;;;;;;;5.25;1.80;;;27.80;99.90;;;;;;5069787;28;20692;-77
2023/08/16 12:16:02;;;;;;;1.70;1.30;;;27.90;99.90;;;;;;5062954;28;20225;-78
2023/08/16 12:18:29;;;;;;;1.83;1.08;;;28.00;99.90;;;;;;5070135;28;20212;-78
2023/08/16 12:20:56;;;;;;;1.60;1.10;;;28.10;99.90;;;;;;5052298;28;20238;-78
2023/08/16 12:23:23;;;;;;;2.33;1.13;;;28.20;99.90;;;;;;5061892;28;20232;-80
2023/08/16 12:25:50;;;;;;;1.50;1.20;;;28.20;99.90;;;;;;5066244;28;20201;-78
2023/08/16 12:28:17;;;;;;;2.03;1.15;;;28.20;99.90;;;;;;5069315;28;20228;-80
2023/08/16 12:30:44;;;;;;;1.42;1.20;;;28.20;99.90;;;;;;5053199;28;20224;-77
2023/08/16 12:33:12;;;;;;;2.08;1.38;;;28.20;99.90;;;;;;5061612;28;20297;-78
2023/08/16 12:35:39;;;;;;;1.65;1.20;;;28.20;99.90;;;;;;5062969;28;20204;-78
2023/08/16 12:38:09;;;;;;;2.60;1.27;;;28.10;99.90;;;;;;5063439;28;20274;-78
2023/08/16 12:40:38;;;;;;;1.42;1.00;;;28.00;99.90;;;;;;5079382;28;20309;-77
2023/08/16 12:43:05;;;;;;;2.13;1.00;;;28.10;99.90;;;;;;5067729;28;20212;-78
2023/08/16 12:45:38;;;;;;;1.35;0.90;;;28.20;99.90;;;;;;5064061;28;20581;-78
2023/08/16 12:48:05;;;;;;;3.47;1.30;;;28.20;99.90;;;;;;5063023;28;20565;-77
2023/08/16 12:50:32;;;;;;;2.75;1.17;;;28.20;99.90;;;;;;5065820;28;20207;-79
2023/08/16 12:53:00;;;;;;;2.20;1.10;;;28.20;99.90;;;;;;5064970;28;20207;-79
2023/08/16 12:55:40;;;;;;;1.67;1.20;;;28.10;99.90;;;;;;5069286;28;20208;-79